sensor_id;sensor_type;location;lat;lon;timestamp;P1;durP1;ratioP1;P2;durP2;ratioP2
11319;SDS011;5715;48.234;14.320;2023-06-22T00:00:17;6.35;;;5.95;;
11319;SDS011;5715;48.234;14.320;2023-06-22T00:03:06;8.07;;;5.68;;
11319;SDS011;5715;48.234;14.320;2023-06-22T00:05:54;6.32;;;5.60;;
11319;SDS011;5715;48.234;14.320;2023-06-22T00:08:43;6.40;;;5.30;;
11319;SDS011;5715;48.234;14.320;2023-06-22T00:11:30;5.68;;;5.20;;
11319;SDS011;5715;48.234;14.320;2023-06-22T00:14:20;5.55;;;5.03;;
11319;SDS011;5715;48.234;14.320;2023-06-22T00:17:07;10.82;;;5.15;;
11319;SDS011;5715;48.234;14.320;2023-06-22T00:19:55;5.40;;;5.10;;
11319;SDS011;5715;48.234;14.320;2023-06-22T00:22:45;5.70;;;5.18;;
11319;SDS011;5715;48.234;14.320;2023-06-22T00:25:35;5.95;;;5.55;;
11319;SDS011;5715;48.234;14.320;2023-06-22T00:28:26;5.78;;;5.47;;
11319;SDS011;5715;48.234;14.320;2023-06-22T00:31:15;8.05;;;6.25;;
11319;SDS011;5715;48.234;14.320;2023-06-22T00:34:03;6.53;;;6.03;;
11319;SDS011;5715;48.234;14.320;2023-06-22T00:36:53;7.05;;;6.55;;
11319;SDS011;5715;48.234;14.320;2023-06-22T00:39:41;7.63;;;5.97;;
11319;SDS011;5715;48.234;14.320;2023-06-22T00:42:30;7.85;;;7.07;;
11319;SDS011;5715;48.234;14.320;2023-06-22T00:45:17;8.32;;;7.22;;
11319;SDS011;5715;48.234;14.320;2023-06-22T00:48:05;10.43;;;6.85;;
11319;SDS011;5715;48.234;14.320;2023-06-22T00:50:55;7.63;;;6.80;;
11319;SDS011;5715;48.234;14.320;2023-06-22T00:53:42;7.90;;;7.18;;
11319;SDS011;5715;48.234;14.320;2023-06-22T00:56:31;6.35;;;5.95;;
11319;SDS011;5715;48.234;14.320;2023-06-22T00:59:20;8.07;;;6.53;;
11319;SDS011;5715;48.234;14.320;2023-06-22T01:02:08;7.72;;;7.22;;
11319;SDS011;5715;48.234;14.320;2023-06-22T01:04:56;7.43;;;6.57;;
11319;SDS011;5715;48.234;14.320;2023-06-22T01:08:31;7.63;;;6.63;;
11319;SDS011;5715;48.234;14.320;2023-06-22T01:16:57;7.93;;;6.28;;
11319;SDS011;5715;48.234;14.320;2023-06-22T01:19:52;6.60;;;6.10;;
11319;SDS011;5715;48.234;14.320;2023-06-22T01:22:59;5.85;;;5.50;;
11319;SDS011;5715;48.234;14.320;2023-06-22T01:26:04;5.65;;;5.32;;
11319;SDS011;5715;48.234;14.320;2023-06-22T01:29:18;7.13;;;6.30;;
11319;SDS011;5715;48.234;14.320;2023-06-22T01:32:09;6.20;;;5.82;;
11319;SDS011;5715;48.234;14.320;2023-06-22T01:35:00;6.20;;;5.70;;
11319;SDS011;5715;48.234;14.320;2023-06-22T01:37:53;7.28;;;5.82;;
11319;SDS011;5715;48.234;14.320;2023-06-22T01:40:42;10.38;;;6.38;;
11319;SDS011;5715;48.234;14.320;2023-06-22T01:43:30;9.82;;;6.95;;
11319;SDS011;5715;48.234;14.320;2023-06-22T01:46:19;6.90;;;6.50;;
11319;SDS011;5715;48.234;14.320;2023-06-22T01:49:08;6.55;;;5.88;;
11319;SDS011;5715;48.234;14.320;2023-06-22T01:51:57;7.57;;;6.78;;
11319;SDS011;5715;48.234;14.320;2023-06-22T01:54:45;8.25;;;7.65;;
11319;SDS011;5715;48.234;14.320;2023-06-22T01:57:32;7.35;;;6.80;;
11319;SDS011;5715;48.234;14.320;2023-06-22T02:00:21;9.57;;;6.65;;
11319;SDS011;5715;48.234;14.320;2023-06-22T02:03:14;6.95;;;6.32;;
11319;SDS011;5715;48.234;14.320;2023-06-22T02:06:11;5.40;;;5.00;;
11319;SDS011;5715;48.234;14.320;2023-06-22T02:09:16;5.93;;;4.53;;
11319;SDS011;5715;48.234;14.320;2023-06-22T02:12:07;9.38;;;6.30;;
11319;SDS011;5715;48.234;14.320;2023-06-22T02:15:03;6.47;;;5.43;;
11319;SDS011;5715;48.234;14.320;2023-06-22T02:17:52;7.45;;;4.82;;
11319;SDS011;5715;48.234;14.320;2023-06-22T02:20:40;8.38;;;4.03;;
11319;SDS011;5715;48.234;14.320;2023-06-22T02:23:28;4.95;;;4.45;;
11319;SDS011;5715;48.234;14.320;2023-06-22T02:26:16;7.05;;;4.32;;
11319;SDS011;5715;48.234;14.320;2023-06-22T02:29:05;4.85;;;4.43;;
11319;SDS011;5715;48.234;14.320;2023-06-22T02:31:52;8.13;;;4.07;;
11319;SDS011;5715;48.234;14.320;2023-06-22T02:34:42;4.88;;;3.97;;
11319;SDS011;5715;48.234;14.320;2023-06-22T02:37:37;4.60;;;3.72;;
11319;SDS011;5715;48.234;14.320;2023-06-22T02:40:28;5.53;;;3.10;;
11319;SDS011;5715;48.234;14.320;2023-06-22T02:43:17;5.28;;;2.75;;
11319;SDS011;5715;48.234;14.320;2023-06-22T02:46:05;2.42;;;1.98;;
11319;SDS011;5715;48.234;14.320;2023-06-22T02:48:52;5.97;;;2.13;;
11319;SDS011;5715;48.234;14.320;2023-06-22T02:51:41;2.42;;;2.10;;
11319;SDS011;5715;48.234;14.320;2023-06-22T02:54:33;4.85;;;2.30;;
11319;SDS011;5715;48.234;14.320;2023-06-22T02:57:20;4.00;;;2.10;;
11319;SDS011;5715;48.234;14.320;2023-06-22T03:00:08;10.25;;;2.00;;
11319;SDS011;5715;48.234;14.320;2023-06-22T03:03:04;1.98;;;1.60;;
11319;SDS011;5715;48.234;14.320;2023-06-22T03:05:52;2.15;;;1.83;;
11319;SDS011;5715;48.234;14.320;2023-06-22T03:08:40;9.40;;;2.00;;
11319;SDS011;5715;48.234;14.320;2023-06-22T03:11:28;2.70;;;2.08;;
11319;SDS011;5715;48.234;14.320;2023-06-22T03:14:17;1.67;;;1.52;;
11319;SDS011;5715;48.234;14.320;2023-06-22T03:17:05;3.22;;;2.13;;
11319;SDS011;5715;48.234;14.320;2023-06-22T03:19:53;4.47;;;1.67;;
11319;SDS011;5715;48.234;14.320;2023-06-22T03:22:41;6.32;;;2.30;;
11319;SDS011;5715;48.234;14.320;2023-06-22T03:25:30;6.05;;;2.63;;
11319;SDS011;5715;48.234;14.320;2023-06-22T03:28:17;3.75;;;2.53;;
11319;SDS011;5715;48.234;14.320;2023-06-22T03:31:05;3.47;;;1.80;;
11319;SDS011;5715;48.234;14.320;2023-06-22T03:33:53;10.50;;;2.53;;
11319;SDS011;5715;48.234;14.320;2023-06-22T03:36:41;6.53;;;2.42;;
11319;SDS011;5715;48.234;14.320;2023-06-22T03:39:29;2.67;;;2.15;;
11319;SDS011;5715;48.234;14.320;2023-06-22T03:42:17;6.60;;;4.68;;
11319;SDS011;5715;48.234;14.320;2023-06-22T03:45:05;3.22;;;2.25;;
11319;SDS011;5715;48.234;14.320;2023-06-22T03:47:53;3.55;;;2.00;;
11319;SDS011;5715;48.234;14.320;2023-06-22T03:50:41;7.50;;;2.20;;
11319;SDS011;5715;48.234;14.320;2023-06-22T03:53:30;1.70;;;1.50;;
11319;SDS011;5715;48.234;14.320;2023-06-22T03:56:18;6.22;;;2.45;;
11319;SDS011;5715;48.234;14.320;2023-06-22T03:59:07;5.05;;;2.30;;
11319;SDS011;5715;48.234;14.320;2023-06-22T04:01:54;3.83;;;2.67;;
11319;SDS011;5715;48.234;14.320;2023-06-22T04:04:42;3.55;;;3.25;;
11319;SDS011;5715;48.234;14.320;2023-06-22T04:07:30;3.80;;;3.45;;
11319;SDS011;5715;48.234;14.320;2023-06-22T04:10:17;2.90;;;2.70;;
11319;SDS011;5715;48.234;14.320;2023-06-22T04:13:05;4.45;;;3.17;;
11319;SDS011;5715;48.234;14.320;2023-06-22T04:15:54;9.90;;;2.97;;
11319;SDS011;5715;48.234;14.320;2023-06-22T04:18:41;2.97;;;2.72;;
11319;SDS011;5715;48.234;14.320;2023-06-22T04:21:29;5.93;;;3.05;;
11319;SDS011;5715;48.234;14.320;2023-06-22T04:24:17;4.18;;;3.75;;
11319;SDS011;5715;48.234;14.320;2023-06-22T04:27:05;3.67;;;3.10;;
11319;SDS011;5715;48.234;14.320;2023-06-22T04:29:52;3.90;;;3.00;;
11319;SDS011;5715;48.234;14.320;2023-06-22T04:32:40;6.97;;;2.30;;
11319;SDS011;5715;48.234;14.320;2023-06-22T04:35:28;5.80;;;2.83;;
11319;SDS011;5715;48.234;14.320;2023-06-22T04:38:15;2.88;;;2.22;;
11319;SDS011;5715;48.234;14.320;2023-06-22T04:41:03;3.10;;;2.42;;
11319;SDS011;5715;48.234;14.320;2023-06-22T04:43:51;3.40;;;2.35;;
11319;SDS011;5715;48.234;14.320;2023-06-22T04:46:40;3.45;;;2.42;;
11319;SDS011;5715;48.234;14.320;2023-06-22T04:49:28;3.03;;;2.17;;
11319;SDS011;5715;48.234;14.320;2023-06-22T04:52:21;2.30;;;1.73;;
11319;SDS011;5715;48.234;14.320;2023-06-22T04:55:09;2.75;;;2.15;;
11319;SDS011;5715;48.234;14.320;2023-06-22T04:58:01;4.22;;;2.13;;
11319;SDS011;5715;48.234;14.320;2023-06-22T05:00:51;2.38;;;2.10;;
11319;SDS011;5715;48.234;14.320;2023-06-22T05:03:39;4.70;;;2.28;;
11319;SDS011;5715;48.234;14.320;2023-06-22T05:06:29;2.83;;;2.30;;
11319;SDS011;5715;48.234;14.320;2023-06-22T05:09:16;7.28;;;2.53;;
11319;SDS011;5715;48.234;14.320;2023-06-22T05:12:05;2.85;;;2.30;;
11319;SDS011;5715;48.234;14.320;2023-06-22T05:14:57;4.10;;;2.60;;
11319;SDS011;5715;48.234;14.320;2023-06-22T05:17:44;4.18;;;3.53;;
11319;SDS011;5715;48.234;14.320;2023-06-22T05:20:32;7.50;;;3.35;;
11319;SDS011;5715;48.234;14.320;2023-06-22T05:23:22;7.47;;;3.22;;
11319;SDS011;5715;48.234;14.320;2023-06-22T05:26:10;4.03;;;3.63;;
11319;SDS011;5715;48.234;14.320;2023-06-22T05:28:58;5.45;;;3.30;;
11319;SDS011;5715;48.234;14.320;2023-06-22T05:31:47;6.72;;;3.13;;
11319;SDS011;5715;48.234;14.320;2023-06-22T05:34:36;4.30;;;2.80;;
11319;SDS011;5715;48.234;14.320;2023-06-22T05:37:24;8.35;;;3.78;;
11319;SDS011;5715;48.234;14.320;2023-06-22T05:40:12;3.70;;;3.08;;
11319;SDS011;5715;48.234;14.320;2023-06-22T05:43:00;5.45;;;3.17;;
11319;SDS011;5715;48.234;14.320;2023-06-22T05:45:48;6.47;;;3.15;;
11319;SDS011;5715;48.234;14.320;2023-06-22T05:48:36;3.40;;;2.47;;
11319;SDS011;5715;48.234;14.320;2023-06-22T05:51:23;8.98;;;3.30;;
11319;SDS011;5715;48.234;14.320;2023-06-22T05:54:11;4.63;;;2.83;;
11319;SDS011;5715;48.234;14.320;2023-06-22T05:57:00;3.97;;;2.90;;
11319;SDS011;5715;48.234;14.320;2023-06-22T05:59:48;4.68;;;2.78;;
11319;SDS011;5715;48.234;14.320;2023-06-22T06:02:36;11.77;;;3.00;;
11319;SDS011;5715;48.234;14.320;2023-06-22T06:05:31;6.22;;;3.17;;
11319;SDS011;5715;48.234;14.320;2023-06-22T06:08:20;3.33;;;2.53;;
11319;SDS011;5715;48.234;14.320;2023-06-22T06:11:08;10.15;;;3.22;;
11319;SDS011;5715;48.234;14.320;2023-06-22T06:13:55;3.47;;;2.75;;
11319;SDS011;5715;48.234;14.320;2023-06-22T06:16:43;14.77;;;3.35;;
11319;SDS011;5715;48.234;14.320;2023-06-22T06:19:30;10.07;;;3.47;;
11319;SDS011;5715;48.234;14.320;2023-06-22T06:22:18;3.97;;;2.42;;
11319;SDS011;5715;48.234;14.320;2023-06-22T06:25:07;9.88;;;2.95;;
11319;SDS011;5715;48.234;14.320;2023-06-22T06:27:55;4.40;;;2.80;;
11319;SDS011;5715;48.234;14.320;2023-06-22T06:30:43;13.90;;;3.88;;
11319;SDS011;5715;48.234;14.320;2023-06-22T06:33:31;4.60;;;3.00;;
11319;SDS011;5715;48.234;14.320;2023-06-22T06:36:18;4.93;;;3.05;;
11319;SDS011;5715;48.234;14.320;2023-06-22T06:39:06;4.25;;;2.75;;
11319;SDS011;5715;48.234;14.320;2023-06-22T06:41:53;6.53;;;2.70;;
11319;SDS011;5715;48.234;14.320;2023-06-22T06:44:41;6.95;;;3.60;;
11319;SDS011;5715;48.234;14.320;2023-06-22T06:47:28;7.18;;;2.95;;
11319;SDS011;5715;48.234;14.320;2023-06-22T06:50:16;3.95;;;2.33;;
11319;SDS011;5715;48.234;14.320;2023-06-22T06:53:05;4.25;;;2.30;;
11319;SDS011;5715;48.234;14.320;2023-06-22T06:55:53;6.70;;;2.80;;
11319;SDS011;5715;48.234;14.320;2023-06-22T06:58:41;4.55;;;2.80;;
11319;SDS011;5715;48.234;14.320;2023-06-22T07:01:29;4.00;;;2.55;;
11319;SDS011;5715;48.234;14.320;2023-06-22T07:04:20;4.60;;;3.05;;
11319;SDS011;5715;48.234;14.320;2023-06-22T07:07:08;6.30;;;2.47;;
11319;SDS011;5715;48.234;14.320;2023-06-22T07:09:56;4.55;;;2.78;;
11319;SDS011;5715;48.234;14.320;2023-06-22T07:12:44;3.45;;;2.30;;
11319;SDS011;5715;48.234;14.320;2023-06-22T07:15:31;9.75;;;2.83;;
11319;SDS011;5715;48.234;14.320;2023-06-22T07:18:19;7.40;;;3.13;;
11319;SDS011;5715;48.234;14.320;2023-06-22T07:21:06;10.63;;;2.53;;
11319;SDS011;5715;48.234;14.320;2023-06-22T07:23:54;13.77;;;3.38;;
11319;SDS011;5715;48.234;14.320;2023-06-22T07:26:43;7.38;;;2.78;;
11319;SDS011;5715;48.234;14.320;2023-06-22T07:29:32;6.18;;;2.88;;
11319;SDS011;5715;48.234;14.320;2023-06-22T07:32:20;2.28;;;1.90;;
11319;SDS011;5715;48.234;14.320;2023-06-22T07:35:07;11.73;;;2.95;;
11319;SDS011;5715;48.234;14.320;2023-06-22T07:37:55;4.10;;;2.63;;
11319;SDS011;5715;48.234;14.320;2023-06-22T07:40:43;4.30;;;2.97;;
11319;SDS011;5715;48.234;14.320;2023-06-22T07:43:31;4.50;;;2.90;;
11319;SDS011;5715;48.234;14.320;2023-06-22T07:46:21;4.90;;;2.35;;
11319;SDS011;5715;48.234;14.320;2023-06-22T07:49:09;6.15;;;3.08;;
11319;SDS011;5715;48.234;14.320;2023-06-22T07:51:57;3.53;;;2.67;;
11319;SDS011;5715;48.234;14.320;2023-06-22T07:54:44;3.20;;;2.38;;
11319;SDS011;5715;48.234;14.320;2023-06-22T07:57:32;5.63;;;2.53;;
11319;SDS011;5715;48.234;14.320;2023-06-22T08:00:21;9.50;;;3.03;;
11319;SDS011;5715;48.234;14.320;2023-06-22T08:03:09;4.75;;;2.83;;
11319;SDS011;5715;48.234;14.320;2023-06-22T08:05:57;3.78;;;2.47;;
11319;SDS011;5715;48.234;14.320;2023-06-22T08:08:44;6.57;;;3.20;;
11319;SDS011;5715;48.234;14.320;2023-06-22T08:11:34;6.07;;;3.15;;
11319;SDS011;5715;48.234;14.320;2023-06-22T08:14:22;3.65;;;2.97;;
11319;SDS011;5715;48.234;14.320;2023-06-22T08:17:14;5.20;;;3.05;;
11319;SDS011;5715;48.234;14.320;2023-06-22T08:20:02;7.22;;;3.13;;
11319;SDS011;5715;48.234;14.320;2023-06-22T08:22:56;4.20;;;3.17;;
11319;SDS011;5715;48.234;14.320;2023-06-22T08:25:45;4.95;;;2.78;;
11319;SDS011;5715;48.234;14.320;2023-06-22T08:28:32;3.08;;;2.55;;
11319;SDS011;5715;48.234;14.320;2023-06-22T08:31:20;6.05;;;3.00;;
11319;SDS011;5715;48.234;14.320;2023-06-22T08:34:07;6.97;;;3.03;;
11319;SDS011;5715;48.234;14.320;2023-06-22T08:36:55;4.57;;;2.88;;
11319;SDS011;5715;48.234;14.320;2023-06-22T08:39:43;5.13;;;3.20;;
11319;SDS011;5715;48.234;14.320;2023-06-22T08:42:30;3.78;;;2.92;;
11319;SDS011;5715;48.234;14.320;2023-06-22T08:45:18;4.18;;;2.88;;
11319;SDS011;5715;48.234;14.320;2023-06-22T08:48:05;4.22;;;3.28;;
11319;SDS011;5715;48.234;14.320;2023-06-22T08:50:53;5.65;;;2.50;;
11319;SDS011;5715;48.234;14.320;2023-06-22T08:53:41;6.88;;;2.63;;
11319;SDS011;5715;48.234;14.320;2023-06-22T08:56:28;5.18;;;3.13;;
11319;SDS011;5715;48.234;14.320;2023-06-22T08:59:16;4.57;;;3.45;;
11319;SDS011;5715;48.234;14.320;2023-06-22T09:02:03;8.50;;;2.75;;
11319;SDS011;5715;48.234;14.320;2023-06-22T09:04:52;4.35;;;2.92;;
11319;SDS011;5715;48.234;14.320;2023-06-22T09:07:42;4.63;;;2.92;;
11319;SDS011;5715;48.234;14.320;2023-06-22T09:10:30;4.53;;;3.45;;
11319;SDS011;5715;48.234;14.320;2023-06-22T09:13:18;6.32;;;3.30;;
11319;SDS011;5715;48.234;14.320;2023-06-22T09:16:06;3.88;;;2.88;;
11319;SDS011;5715;48.234;14.320;2023-06-22T09:18:54;3.97;;;3.13;;
11319;SDS011;5715;48.234;14.320;2023-06-22T09:21:41;2.90;;;2.60;;
11319;SDS011;5715;48.234;14.320;2023-06-22T09:24:29;3.88;;;2.97;;
11319;SDS011;5715;48.234;14.320;2023-06-22T09:27:16;5.35;;;2.95;;
11319;SDS011;5715;48.234;14.320;2023-06-22T09:30:04;4.22;;;3.08;;
11319;SDS011;5715;48.234;14.320;2023-06-22T09:32:53;4.50;;;2.95;;
11319;SDS011;5715;48.234;14.320;2023-06-22T09:35:41;3.88;;;2.63;;
11319;SDS011;5715;48.234;14.320;2023-06-22T09:38:28;3.35;;;2.78;;
11319;SDS011;5715;48.234;14.320;2023-06-22T09:41:16;4.95;;;2.63;;
11319;SDS011;5715;48.234;14.320;2023-06-22T09:44:04;3.17;;;2.47;;
11319;SDS011;5715;48.234;14.320;2023-06-22T09:46:51;5.40;;;3.33;;
11319;SDS011;5715;48.234;14.320;2023-06-22T09:49:40;4.32;;;3.22;;
11319;SDS011;5715;48.234;14.320;2023-06-22T09:52:34;4.93;;;2.88;;
11319;SDS011;5715;48.234;14.320;2023-06-22T09:55:34;3.40;;;2.88;;
11319;SDS011;5715;48.234;14.320;2023-06-22T09:58:21;4.10;;;2.83;;
11319;SDS011;5715;48.234;14.320;2023-06-22T10:01:09;3.35;;;2.95;;
11319;SDS011;5715;48.234;14.320;2023-06-22T10:03:57;6.78;;;2.85;;
11319;SDS011;5715;48.234;14.320;2023-06-22T10:06:45;3.83;;;2.80;;
11319;SDS011;5715;48.234;14.320;2023-06-22T10:09:33;5.95;;;3.05;;
11319;SDS011;5715;48.234;14.320;2023-06-22T10:12:20;4.32;;;3.17;;
11319;SDS011;5715;48.234;14.320;2023-06-22T10:15:08;3.95;;;3.45;;
11319;SDS011;5715;48.234;14.320;2023-06-22T10:17:57;8.65;;;3.30;;
11319;SDS011;5715;48.234;14.320;2023-06-22T10:20:46;4.07;;;3.30;;
11319;SDS011;5715;48.234;14.320;2023-06-22T10:23:39;5.32;;;3.15;;
11319;SDS011;5715;48.234;14.320;2023-06-22T10:26:27;9.57;;;3.95;;
11319;SDS011;5715;48.234;14.320;2023-06-22T10:29:15;3.97;;;2.78;;
11319;SDS011;5715;48.234;14.320;2023-06-22T10:32:03;9.98;;;3.30;;
11319;SDS011;5715;48.234;14.320;2023-06-22T10:34:51;6.78;;;3.50;;
11319;SDS011;5715;48.234;14.320;2023-06-22T10:37:39;4.95;;;3.45;;
11319;SDS011;5715;48.234;14.320;2023-06-22T10:40:29;8.70;;;3.42;;
11319;SDS011;5715;48.234;14.320;2023-06-22T10:43:17;4.82;;;2.97;;
11319;SDS011;5715;48.234;14.320;2023-06-22T10:46:04;10.63;;;3.65;;
11319;SDS011;5715;48.234;14.320;2023-06-22T10:48:53;6.43;;;3.13;;
11319;SDS011;5715;48.234;14.320;2023-06-22T10:51:42;6.30;;;3.35;;
11319;SDS011;5715;48.234;14.320;2023-06-22T10:54:30;5.60;;;3.83;;
11319;SDS011;5715;48.234;14.320;2023-06-22T10:57:21;7.05;;;3.70;;
11319;SDS011;5715;48.234;14.320;2023-06-22T11:00:09;8.10;;;3.47;;
11319;SDS011;5715;48.234;14.320;2023-06-22T11:02:58;5.53;;;3.30;;
11319;SDS011;5715;48.234;14.320;2023-06-22T11:05:46;7.32;;;3.90;;
11319;SDS011;5715;48.234;14.320;2023-06-22T11:08:34;3.58;;;2.83;;
11319;SDS011;5715;48.234;14.320;2023-06-22T11:11:22;3.40;;;3.10;;
11319;SDS011;5715;48.234;14.320;2023-06-22T11:14:09;3.58;;;3.17;;
11319;SDS011;5715;48.234;14.320;2023-06-22T11:16:58;6.90;;;4.18;;
11319;SDS011;5715;48.234;14.320;2023-06-22T11:19:46;3.55;;;2.72;;
11319;SDS011;5715;48.234;14.320;2023-06-22T11:22:33;6.47;;;3.55;;
11319;SDS011;5715;48.234;14.320;2023-06-22T11:25:22;5.55;;;3.33;;
11319;SDS011;5715;48.234;14.320;2023-06-22T11:28:09;6.18;;;2.80;;
11319;SDS011;5715;48.234;14.320;2023-06-22T11:30:57;3.42;;;3.10;;
11319;SDS011;5715;48.234;14.320;2023-06-22T11:33:50;6.30;;;3.50;;
11319;SDS011;5715;48.234;14.320;2023-06-22T11:36:38;6.18;;;3.80;;
11319;SDS011;5715;48.234;14.320;2023-06-22T11:39:26;8.38;;;3.40;;
11319;SDS011;5715;48.234;14.320;2023-06-22T11:42:28;8.77;;;4.07;;
11319;SDS011;5715;48.234;14.320;2023-06-22T11:45:15;3.55;;;2.88;;
11319;SDS011;5715;48.234;14.320;2023-06-22T11:48:04;6.47;;;3.70;;
11319;SDS011;5715;48.234;14.320;2023-06-22T11:50:52;5.22;;;4.03;;
11319;SDS011;5715;48.234;14.320;2023-06-22T11:53:43;4.82;;;3.40;;
11319;SDS011;5715;48.234;14.320;2023-06-22T11:56:32;7.43;;;3.55;;
11319;SDS011;5715;48.234;14.320;2023-06-22T11:59:20;11.50;;;3.80;;
11319;SDS011;5715;48.234;14.320;2023-06-22T12:02:09;4.97;;;3.70;;
11319;SDS011;5715;48.234;14.320;2023-06-22T12:04:56;5.80;;;3.75;;
11319;SDS011;5715;48.234;14.320;2023-06-22T12:07:44;8.27;;;3.10;;
11319;SDS011;5715;48.234;14.320;2023-06-22T12:10:32;4.80;;;3.67;;
11319;SDS011;5715;48.234;14.320;2023-06-22T12:13:21;6.57;;;3.83;;
11319;SDS011;5715;48.234;14.320;2023-06-22T12:16:08;6.90;;;3.80;;
11319;SDS011;5715;48.234;14.320;2023-06-22T12:18:56;7.40;;;4.15;;
11319;SDS011;5715;48.234;14.320;2023-06-22T12:21:44;10.20;;;4.10;;
11319;SDS011;5715;48.234;14.320;2023-06-22T12:24:32;6.53;;;3.88;;
11319;SDS011;5715;48.234;14.320;2023-06-22T12:27:20;7.05;;;3.40;;
11319;SDS011;5715;48.234;14.320;2023-06-22T12:30:08;7.80;;;3.88;;
11319;SDS011;5715;48.234;14.320;2023-06-22T12:32:56;7.32;;;4.13;;
11319;SDS011;5715;48.234;14.320;2023-06-22T12:35:43;8.45;;;3.90;;
11319;SDS011;5715;48.234;14.320;2023-06-22T12:38:32;10.30;;;4.68;;
11319;SDS011;5715;48.234;14.320;2023-06-22T12:41:20;4.65;;;3.60;;
11319;SDS011;5715;48.234;14.320;2023-06-22T12:44:07;6.80;;;4.15;;
11319;SDS011;5715;48.234;14.320;2023-06-22T12:46:55;5.28;;;4.28;;
11319;SDS011;5715;48.234;14.320;2023-06-22T12:49:42;4.32;;;3.20;;
11319;SDS011;5715;48.234;14.320;2023-06-22T12:52:30;9.63;;;3.63;;
11319;SDS011;5715;48.234;14.320;2023-06-22T12:55:21;5.13;;;3.53;;
11319;SDS011;5715;48.234;14.320;2023-06-22T12:58:08;7.88;;;4.38;;
11319;SDS011;5715;48.234;14.320;2023-06-22T13:00:56;8.52;;;3.53;;
11319;SDS011;5715;48.234;14.320;2023-06-22T13:03:44;5.78;;;3.70;;
11319;SDS011;5715;48.234;14.320;2023-06-22T13:06:31;5.50;;;3.80;;
11319;SDS011;5715;48.234;14.320;2023-06-22T13:09:19;7.38;;;3.40;;
11319;SDS011;5715;48.234;14.320;2023-06-22T13:12:07;5.57;;;3.78;;
11319;SDS011;5715;48.234;14.320;2023-06-22T13:14:55;7.28;;;4.43;;
11319;SDS011;5715;48.234;14.320;2023-06-22T13:17:43;4.30;;;3.80;;
11319;SDS011;5715;48.234;14.320;2023-06-22T13:20:31;4.22;;;3.83;;
11319;SDS011;5715;48.234;14.320;2023-06-22T13:23:18;4.68;;;3.60;;
11319;SDS011;5715;48.234;14.320;2023-06-22T13:26:06;9.90;;;4.38;;
11319;SDS011;5715;48.234;14.320;2023-06-22T13:28:54;5.43;;;3.80;;
11319;SDS011;5715;48.234;14.320;2023-06-22T13:31:42;7.75;;;3.92;;
11319;SDS011;5715;48.234;14.320;2023-06-22T13:34:29;5.32;;;3.75;;
11319;SDS011;5715;48.234;14.320;2023-06-22T13:37:17;13.95;;;4.07;;
11319;SDS011;5715;48.234;14.320;2023-06-22T13:40:05;4.90;;;4.35;;
11319;SDS011;5715;48.234;14.320;2023-06-22T13:42:55;11.20;;;4.65;;
11319;SDS011;5715;48.234;14.320;2023-06-22T13:45:43;7.65;;;3.75;;
11319;SDS011;5715;48.234;14.320;2023-06-22T13:48:31;6.15;;;4.32;;
11319;SDS011;5715;48.234;14.320;2023-06-22T13:51:19;6.22;;;4.00;;
11319;SDS011;5715;48.234;14.320;2023-06-22T13:54:06;9.90;;;4.80;;
11319;SDS011;5715;48.234;14.320;2023-06-22T13:57:10;7.57;;;4.90;;
11319;SDS011;5715;48.234;14.320;2023-06-22T13:59:58;6.72;;;4.50;;
11319;SDS011;5715;48.234;14.320;2023-06-22T14:02:46;7.72;;;4.53;;
11319;SDS011;5715;48.234;14.320;2023-06-22T14:05:33;7.35;;;4.53;;
11319;SDS011;5715;48.234;14.320;2023-06-22T14:08:21;5.93;;;4.47;;
11319;SDS011;5715;48.234;14.320;2023-06-22T14:11:13;5.40;;;4.40;;
11319;SDS011;5715;48.234;14.320;2023-06-22T14:14:00;13.82;;;5.20;;
11319;SDS011;5715;48.234;14.320;2023-06-22T14:16:48;9.07;;;4.70;;
11319;SDS011;5715;48.234;14.320;2023-06-22T14:19:36;5.80;;;4.18;;
11319;SDS011;5715;48.234;14.320;2023-06-22T14:22:24;6.40;;;4.32;;
11319;SDS011;5715;48.234;14.320;2023-06-22T14:25:13;9.18;;;5.25;;
11319;SDS011;5715;48.234;14.320;2023-06-22T14:28:01;9.35;;;5.18;;
11319;SDS011;5715;48.234;14.320;2023-06-22T14:30:48;8.02;;;4.43;;
11319;SDS011;5715;48.234;14.320;2023-06-22T14:33:36;7.97;;;4.30;;
11319;SDS011;5715;48.234;14.320;2023-06-22T14:36:23;8.10;;;5.03;;
11319;SDS011;5715;48.234;14.320;2023-06-22T14:39:11;7.50;;;4.70;;
11319;SDS011;5715;48.234;14.320;2023-06-22T14:41:59;5.93;;;4.68;;
11319;SDS011;5715;48.234;14.320;2023-06-22T14:44:47;9.43;;;4.65;;
11319;SDS011;5715;48.234;14.320;2023-06-22T14:47:35;11.43;;;4.53;;
11319;SDS011;5715;48.234;14.320;2023-06-22T14:50:23;13.48;;;4.93;;
11319;SDS011;5715;48.234;14.320;2023-06-22T14:53:11;10.48;;;5.38;;
11319;SDS011;5715;48.234;14.320;2023-06-22T14:55:58;9.80;;;4.82;;
11319;SDS011;5715;48.234;14.320;2023-06-22T14:58:49;9.40;;;5.20;;
11319;SDS011;5715;48.234;14.320;2023-06-22T15:01:36;4.85;;;4.38;;
11319;SDS011;5715;48.234;14.320;2023-06-22T15:04:27;6.30;;;4.60;;
11319;SDS011;5715;48.234;14.320;2023-06-22T15:07:18;19.02;;;5.55;;
11319;SDS011;5715;48.234;14.320;2023-06-22T15:10:07;8.10;;;4.47;;
11319;SDS011;5715;48.234;14.320;2023-06-22T15:12:55;13.98;;;4.32;;
11319;SDS011;5715;48.234;14.320;2023-06-22T15:15:43;5.55;;;3.95;;
11319;SDS011;5715;48.234;14.320;2023-06-22T15:18:33;8.70;;;4.25;;
11319;SDS011;5715;48.234;14.320;2023-06-22T15:21:22;4.65;;;4.13;;
11319;SDS011;5715;48.234;14.320;2023-06-22T15:24:10;7.22;;;4.75;;
11319;SDS011;5715;48.234;14.320;2023-06-22T15:26:58;6.45;;;4.00;;
11319;SDS011;5715;48.234;14.320;2023-06-22T15:29:47;8.65;;;4.75;;
11319;SDS011;5715;48.234;14.320;2023-06-22T15:32:34;9.45;;;4.40;;
11319;SDS011;5715;48.234;14.320;2023-06-22T15:35:23;6.25;;;3.88;;
11319;SDS011;5715;48.234;14.320;2023-06-22T15:38:11;10.35;;;4.38;;
11319;SDS011;5715;48.234;14.320;2023-06-22T15:40:58;5.68;;;4.30;;
11319;SDS011;5715;48.234;14.320;2023-06-22T15:43:46;5.20;;;3.70;;
11319;SDS011;5715;48.234;14.320;2023-06-22T15:46:34;6.38;;;4.28;;
11319;SDS011;5715;48.234;14.320;2023-06-22T15:49:21;5.57;;;4.35;;
11319;SDS011;5715;48.234;14.320;2023-06-22T15:52:09;8.00;;;4.20;;
11319;SDS011;5715;48.234;14.320;2023-06-22T15:54:56;5.60;;;4.78;;
11319;SDS011;5715;48.234;14.320;2023-06-22T15:57:47;10.63;;;4.65;;
11319;SDS011;5715;48.234;14.320;2023-06-22T16:00:34;9.00;;;4.80;;
11319;SDS011;5715;48.234;14.320;2023-06-22T16:03:22;5.63;;;3.60;;
11319;SDS011;5715;48.234;14.320;2023-06-22T16:06:09;15.48;;;5.13;;
11319;SDS011;5715;48.234;14.320;2023-06-22T16:08:57;7.85;;;4.68;;
11319;SDS011;5715;48.234;14.320;2023-06-22T16:11:45;10.63;;;5.15;;
11319;SDS011;5715;48.234;14.320;2023-06-22T16:14:32;10.82;;;5.07;;
11319;SDS011;5715;48.234;14.320;2023-06-22T16:17:21;3.80;;;3.50;;
11319;SDS011;5715;48.234;14.320;2023-06-22T16:20:09;9.38;;;4.57;;
11319;SDS011;5715;48.234;14.320;2023-06-22T16:22:57;6.32;;;3.80;;
11319;SDS011;5715;48.234;14.320;2023-06-22T16:25:45;8.40;;;4.20;;
11319;SDS011;5715;48.234;14.320;2023-06-22T16:28:33;8.57;;;3.70;;
11319;SDS011;5715;48.234;14.320;2023-06-22T16:31:21;10.02;;;3.75;;
11319;SDS011;5715;48.234;14.320;2023-06-22T16:34:08;7.78;;;3.97;;
11319;SDS011;5715;48.234;14.320;2023-06-22T16:36:56;9.27;;;3.83;;
11319;SDS011;5715;48.234;14.320;2023-06-22T16:39:44;10.23;;;4.78;;
11319;SDS011;5715;48.234;14.320;2023-06-22T16:42:31;8.02;;;3.80;;
11319;SDS011;5715;48.234;14.320;2023-06-22T16:45:21;9.48;;;3.17;;
11319;SDS011;5715;48.234;14.320;2023-06-22T16:48:08;8.55;;;4.20;;
11319;SDS011;5715;48.234;14.320;2023-06-22T16:50:56;18.20;;;4.68;;
11319;SDS011;5715;48.234;14.320;2023-06-22T16:53:44;11.95;;;4.13;;
11319;SDS011;5715;48.234;14.320;2023-06-22T16:56:32;7.68;;;3.88;;
11319;SDS011;5715;48.234;14.320;2023-06-22T16:59:20;4.93;;;3.65;;